Terminal Aerodrome Forecast
Issued by NWS Sterling, VA

Current Version | Previous Version | Text Only | Print | Product List | Glossary Off
Versions: 1 2 3 4 5 6 7 8 9 10 11 12 13 14 15 16 17 18 19 20 21 22 23 24 25 26 27 28 29 30 31

000
FTUS41 KLWX 022320
TAFIAD
TAF
KIAD 022320Z 0300/0406 VRB03KT P6SM SCT050 BKN080
     FM030600 VRB03KT 5SM BR SCT015 BKN080
     FM031200 VRB03KT P6SM BKN015 OVC050
     FM031800 09004KT 6SM -SHRA SCT025 OVC050
     FM040200 13005KT 5SM -SHRA BKN015 OVC050=

USA.gov is the U.S. government's official web portal to all federal, state and local government web resources and services.